createdAt,value
2019-02-11T00:01:31.686Z,0.80
2019-02-11T00:04:12.515Z,0.68
2019-02-11T00:06:53.251Z,1.00
2019-02-11T00:09:33.852Z,0.70
2019-02-11T00:12:14.546Z,0.70
2019-02-11T00:14:55.559Z,1.05
2019-02-11T00:17:35.984Z,0.70
2019-02-11T00:20:17.011Z,0.95
2019-02-11T00:22:57.648Z,0.62
2019-02-11T00:25:38.632Z,0.90
2019-02-11T00:28:19.362Z,1.27
2019-02-11T00:31:00.268Z,0.70
2019-02-11T00:33:40.968Z,1.10
2019-02-11T00:36:21.508Z,0.72
2019-02-11T00:39:02.313Z,3.83
2019-02-11T00:41:43.076Z,1.20
2019-02-11T00:44:23.834Z,2.27
2019-02-11T00:47:04.697Z,1.00
2019-02-11T00:49:45.194Z,0.90
2019-02-11T00:52:26.011Z,1.25
2019-02-11T00:55:07.044Z,2.45
2019-02-11T00:57:48.047Z,1.72
2019-02-11T01:00:28.895Z,1.50
2019-02-11T01:03:09.473Z,1.32
2019-02-11T01:05:50.048Z,0.80
2019-02-11T01:08:30.574Z,2.83
2019-02-11T01:11:11.737Z,1.10
2019-02-11T01:13:52.579Z,1.00
2019-02-11T01:16:33.108Z,1.40
2019-02-11T01:19:13.676Z,2.37
2019-02-11T01:21:54.168Z,4.53
2019-02-11T01:24:34.569Z,1.22
2019-02-11T01:27:15.437Z,1.05
2019-02-11T01:29:55.837Z,1.00
2019-02-11T01:32:36.996Z,0.80
2019-02-11T01:35:18.068Z,0.70
2019-02-11T01:37:59.004Z,1.77
2019-02-11T01:40:40.078Z,0.90
2019-02-11T01:43:21.299Z,1.17
2019-02-11T01:46:01.699Z,0.70
2019-02-11T01:48:42.267Z,1.60
2019-02-11T01:51:23.176Z,2.17
2019-02-11T01:54:03.668Z,0.90
2019-02-11T01:56:44.356Z,1.80
2019-02-11T01:59:24.972Z,1.05
2019-02-11T02:02:06.105Z,2.65
2019-02-11T02:04:46.672Z,1.45
2019-02-11T02:07:27.437Z,1.80
2019-02-11T02:10:08.176Z,1.77
2019-02-11T02:12:48.867Z,1.00
2019-02-11T02:15:29.692Z,1.22
2019-02-11T02:18:10.194Z,2.65
2019-02-11T02:20:51.223Z,2.00
2019-02-11T02:23:31.534Z,1.20
2019-02-11T02:26:12.556Z,1.35
2019-02-11T02:28:53.031Z,1.75
2019-02-11T02:31:33.734Z,1.10
2019-02-11T02:34:14.444Z,2.92
2019-02-11T02:36:55.603Z,5.22
2019-02-11T02:39:36.475Z,3.08
2019-02-11T02:42:17.244Z,2.08
2019-02-11T02:44:57.591Z,1.90
2019-02-11T02:47:38.539Z,3.30
2019-02-11T02:50:19.111Z,2.72
2019-02-11T02:53:00.196Z,2.62
2019-02-11T02:55:41.331Z,1.77
2019-02-11T02:58:21.844Z,1.80
2019-02-11T03:01:02.620Z,3.00
2019-02-11T03:03:43.384Z,1.25
2019-02-11T03:06:24.163Z,1.92
2019-02-11T03:09:04.900Z,5.58
2019-02-11T03:11:45.860Z,1.40
2019-02-11T03:14:26.513Z,3.05
2019-02-11T03:17:07.239Z,1.17
2019-02-11T03:19:47.759Z,1.30
2019-02-11T03:22:28.875Z,2.50
2019-02-11T03:25:09.514Z,1.57
2019-02-11T03:27:50.067Z,1.65
2019-02-11T03:30:30.657Z,1.82
2019-02-11T03:33:11.571Z,2.12
2019-02-11T03:35:51.973Z,1.57
2019-02-11T03:38:32.491Z,1.85
2019-02-11T03:41:12.951Z,6.22
2019-02-11T03:43:53.420Z,2.00
2019-02-11T03:46:34.410Z,3.42
2019-02-11T03:49:14.961Z,2.55
2019-02-11T03:51:56.041Z,3.77
2019-02-11T03:54:36.829Z,3.02
2019-02-11T03:57:17.685Z,3.95
2019-02-11T03:59:58.514Z,4.20
2019-02-11T04:02:39.352Z,4.78
2019-02-11T04:05:19.869Z,4.33
2019-02-11T04:08:00.336Z,5.97
2019-02-11T04:10:41.109Z,4.33
2019-02-11T04:13:21.876Z,5.60
2019-02-11T04:16:02.607Z,5.35
2019-02-11T04:18:43.437Z,4.60
2019-02-11T04:21:24.699Z,6.50
2019-02-11T04:24:05.191Z,7.40
2019-02-11T04:26:46.299Z,4.17
2019-02-11T04:29:27.056Z,3.70
2019-02-11T04:32:07.899Z,4.05
2019-02-11T04:34:48.423Z,9.85
2019-02-11T04:37:29.459Z,6.35
2019-02-11T04:40:10.520Z,6.60
2019-02-11T04:42:51.306Z,10.05
2019-02-11T04:45:32.006Z,6.87
2019-02-11T04:48:13.089Z,5.22
2019-02-11T04:50:53.576Z,7.50
2019-02-11T04:53:34.312Z,9.55
2019-02-11T04:56:15.175Z,7.70
2019-02-11T04:58:56.223Z,6.03
2019-02-11T05:01:37.048Z,7.10
2019-02-11T05:04:17.894Z,10.13
2019-02-11T05:06:58.810Z,13.28
2019-02-11T05:09:39.380Z,13.90
2019-02-11T05:12:20.122Z,8.08
2019-02-11T05:15:00.846Z,11.55
2019-02-11T05:17:41.651Z,11.65
2019-02-11T05:20:22.533Z,15.10
2019-02-11T05:23:03.632Z,9.15
2019-02-11T05:25:44.356Z,14.03
2019-02-11T05:28:25.508Z,9.35
2019-02-11T05:31:06.181Z,9.23
2019-02-11T05:33:47.052Z,12.47
2019-02-11T05:36:27.793Z,7.75
2019-02-11T05:39:08.477Z,13.15
2019-02-11T05:41:48.975Z,5.67
2019-02-11T05:44:29.531Z,12.15
2019-02-11T05:47:10.445Z,11.78
2019-02-11T05:49:51.100Z,12.78
2019-02-11T05:52:32.000Z,12.33
2019-02-11T05:55:12.363Z,8.35
2019-02-11T05:57:53.261Z,11.28
2019-02-11T06:00:33.856Z,12.95
2019-02-11T06:03:14.824Z,16.97
2019-02-11T06:05:55.521Z,15.25
2019-02-11T06:08:36.066Z,10.55
2019-02-11T06:11:16.702Z,12.03
2019-02-11T06:13:57.664Z,9.45
2019-02-11T06:16:38.188Z,14.33
2019-02-11T06:19:18.739Z,14.75
2019-02-11T06:21:59.292Z,12.63
2019-02-11T06:24:40.323Z,12.95
2019-02-11T06:27:21.572Z,14.70
2019-02-11T06:30:02.420Z,12.10
2019-02-11T06:32:43.171Z,23.38
2019-02-11T06:35:23.636Z,11.73
2019-02-11T06:38:04.500Z,13.70
2019-02-11T06:40:45.316Z,13.43
2019-02-11T06:43:26.129Z,10.85
2019-02-11T06:46:06.607Z,13.93
2019-02-11T06:48:47.229Z,12.15
2019-02-11T06:51:28.005Z,17.07
2019-02-11T06:54:08.523Z,14.53
2019-02-11T06:56:49.343Z,15.53
2019-02-11T06:59:30.342Z,13.15
2019-02-11T07:02:10.752Z,22.73
2019-02-11T07:04:51.463Z,12.07
2019-02-11T07:07:31.975Z,16.40
2019-02-11T07:10:12.697Z,14.35
2019-02-11T07:12:53.703Z,12.33
2019-02-11T07:15:34.610Z,13.20
2019-02-11T07:18:15.715Z,13.38
2019-02-11T07:20:56.479Z,19.75
2019-02-11T07:23:37.291Z,17.75
2019-02-11T07:26:18.016Z,14.68
2019-02-11T07:28:58.539Z,13.53
2019-02-11T07:31:39.623Z,21.30
2019-02-11T07:34:20.320Z,17.73
2019-02-11T07:37:01.176Z,12.37
2019-02-11T07:39:41.894Z,16.25
2019-02-11T07:45:47.096Z,20.30
2019-02-11T07:48:29.580Z,13.20
2019-02-11T07:51:10.262Z,13.38
2019-02-11T07:53:51.054Z,15.25
2019-02-11T07:56:31.971Z,15.65
2019-02-11T07:59:12.547Z,13.30
2019-02-11T08:01:53.375Z,14.63
2019-02-11T08:04:34.043Z,16.77
2019-02-11T08:07:14.975Z,16.65
2019-02-11T08:09:56.011Z,17.57
2019-02-11T08:12:36.628Z,10.65
2019-02-11T08:15:17.663Z,11.25
2019-02-11T08:17:58.572Z,9.53
2019-02-11T08:20:39.608Z,6.45
2019-02-11T08:23:20.564Z,9.75
2019-02-11T08:26:01.437Z,17.48
2019-02-11T08:28:41.860Z,12.28
2019-02-11T08:31:22.496Z,10.43
2019-02-11T08:34:03.417Z,13.08
2019-02-11T08:36:44.207Z,7.50
2019-02-11T08:39:25.247Z,10.00
2019-02-11T08:42:05.907Z,12.03
2019-02-11T08:44:46.780Z,14.40
2019-02-11T08:47:27.644Z,4.50
2019-02-11T08:50:08.532Z,8.88
2019-02-11T08:52:49.118Z,11.97
2019-02-11T08:55:30.138Z,7.80
2019-02-11T08:58:11.007Z,8.38
2019-02-11T09:00:51.965Z,9.10
2019-02-11T09:03:33.246Z,3.60
2019-02-11T09:06:14.011Z,9.58
2019-02-11T09:08:54.827Z,9.10
2019-02-11T09:11:35.591Z,4.25
2019-02-11T09:14:16.252Z,9.40
2019-02-11T09:16:56.647Z,8.40
2019-02-11T09:19:37.184Z,6.55
2019-02-11T09:22:17.828Z,6.58
2019-02-11T09:24:59.065Z,10.40
2019-02-11T09:27:39.663Z,9.70
2019-02-11T09:30:20.646Z,6.15
2019-02-11T09:33:01.419Z,8.65
2019-02-11T09:35:42.448Z,9.13
2019-02-11T09:38:22.943Z,3.27
2019-02-11T09:41:04.352Z,6.60
2019-02-11T09:43:45.662Z,7.37
2019-02-11T09:46:26.083Z,9.33
2019-02-11T09:49:07.120Z,6.60
2019-02-11T09:51:47.973Z,11.90
2019-02-11T09:54:28.736Z,3.70
2019-02-11T09:57:09.379Z,5.20
2019-02-11T09:59:49.962Z,8.55
2019-02-11T10:02:30.708Z,12.68
2019-02-11T10:05:11.695Z,6.03
2019-02-11T10:07:52.279Z,6.80
2019-02-11T10:10:33.347Z,6.53
2019-02-11T10:13:14.215Z,7.50
2019-02-11T10:15:55.051Z,12.00
2019-02-11T10:18:35.571Z,3.77
2019-02-11T10:21:16.450Z,4.58
2019-02-11T10:23:56.895Z,4.90
2019-02-11T10:26:37.927Z,4.25
2019-02-11T10:29:18.316Z,10.53
2019-02-11T10:31:58.888Z,8.60
2019-02-11T10:34:39.819Z,9.93
2019-02-11T10:37:20.547Z,7.65
2019-02-11T10:40:01.619Z,11.65
2019-02-11T10:42:42.271Z,6.30
2019-02-11T10:45:22.975Z,7.70
2019-02-11T10:48:03.600Z,10.50
2019-02-11T10:50:44.381Z,10.38
2019-02-11T10:53:25.647Z,3.72
2019-02-11T10:56:06.086Z,11.85
2019-02-11T10:58:46.568Z,8.15
2019-02-11T11:01:27.387Z,6.78
2019-02-11T11:04:08.114Z,4.92
2019-02-11T11:06:48.916Z,7.67
2019-02-11T11:09:31.303Z,6.08
2019-02-11T11:12:11.992Z,7.60
2019-02-11T11:14:52.764Z,7.42
2019-02-11T11:17:33.904Z,6.78
2019-02-11T11:20:15.101Z,8.00
2019-02-11T11:22:56.065Z,3.65
2019-02-11T11:25:37.080Z,7.83
2019-02-11T11:28:17.804Z,4.80
2019-02-11T11:30:58.669Z,6.15
2019-02-11T11:33:39.217Z,5.60
2019-02-11T11:36:20.180Z,11.55
2019-02-11T11:39:00.849Z,8.88
2019-02-11T11:41:41.697Z,6.97
2019-02-11T11:44:21.992Z,5.75
2019-02-11T11:47:03.099Z,7.58
2019-02-11T11:49:43.895Z,11.48
2019-02-11T11:52:24.537Z,4.33
2019-02-11T11:55:05.202Z,4.30
2019-02-11T11:57:46.160Z,8.90
2019-02-11T12:00:26.890Z,8.90
2019-02-11T12:03:07.655Z,9.03
2019-02-11T12:05:48.676Z,6.28
2019-02-11T12:08:29.892Z,10.98
2019-02-11T12:11:10.869Z,7.53
2019-02-11T12:13:51.521Z,5.42
2019-02-11T12:16:32.091Z,12.10
2019-02-11T12:19:13.285Z,8.85
2019-02-11T12:21:53.829Z,9.35
2019-02-11T12:24:34.947Z,11.65
2019-02-11T12:27:15.939Z,5.72
2019-02-11T12:29:56.437Z,9.93
2019-02-11T12:32:37.297Z,13.15
2019-02-11T12:35:18.148Z,5.78
2019-02-11T12:37:58.828Z,8.98
2019-02-11T12:40:39.488Z,15.23
2019-02-11T12:43:20.131Z,4.53
2019-02-11T12:46:01.073Z,4.33
2019-02-11T12:48:41.600Z,2.75
2019-02-11T12:51:25.078Z,10.32
2019-02-11T12:54:06.005Z,10.28
2019-02-11T12:56:47.069Z,4.95
2019-02-11T12:59:28.075Z,4.75
2019-02-11T13:02:08.971Z,2.27
2019-02-11T13:04:49.784Z,7.47
2019-02-11T13:07:30.611Z,5.00
2019-02-11T13:10:13.400Z,6.33
2019-02-11T13:12:54.210Z,5.70
2019-02-11T13:15:59.103Z,4.78
2019-02-11T13:18:18.068Z,12.20
2019-02-11T13:20:58.888Z,12.73
2019-02-11T13:23:39.799Z,8.10
2019-02-11T13:26:20.876Z,12.70
2019-02-11T13:29:01.509Z,11.55
2019-02-11T13:31:42.477Z,7.50
2019-02-11T13:34:23.011Z,15.43
2019-02-11T13:37:03.958Z,10.55
2019-02-11T13:39:44.749Z,14.33
2019-02-11T13:42:25.286Z,9.25
2019-02-11T13:45:06.008Z,11.65
2019-02-11T13:47:57.548Z,13.65
2019-02-11T13:50:29.225Z,6.37
2019-02-11T13:53:09.940Z,10.30
2019-02-11T13:55:50.742Z,6.58
2019-02-11T13:58:31.427Z,9.88
2019-02-11T14:01:12.271Z,9.93
2019-02-11T14:03:52.932Z,4.25
2019-02-11T14:06:33.775Z,8.75
2019-02-11T14:09:14.363Z,5.55
2019-02-11T14:11:55.138Z,9.18
2019-02-11T14:14:35.846Z,20.20
2019-02-11T14:17:16.573Z,20.82
2019-02-11T14:19:57.427Z,19.37
2019-02-11T14:22:38.506Z,16.82
2019-02-11T14:25:39.103Z,16.80
2019-02-11T14:28:02.039Z,17.52
2019-02-11T14:30:42.598Z,13.45
2019-02-11T14:33:23.754Z,15.60
2019-02-11T14:36:05.757Z,19.80
2019-02-11T14:38:46.752Z,17.02
2019-02-11T14:41:27.639Z,13.25
2019-02-11T14:44:12.886Z,13.60
2019-02-11T14:46:50.341Z,12.85
2019-02-11T14:49:31.415Z,16.95
2019-02-11T14:52:12.137Z,15.18
2019-02-11T14:54:52.517Z,26.90
2019-02-11T14:57:33.622Z,35.98
2019-02-11T15:00:16.191Z,33.23
2019-02-11T15:02:57.399Z,25.95
2019-02-11T15:05:38.182Z,27.20
2019-02-11T15:08:19.001Z,29.65
2019-02-11T15:10:59.681Z,32.60
2019-02-11T15:13:40.596Z,13.55
2019-02-11T15:16:21.014Z,19.42
2019-02-11T15:19:01.419Z,10.50
2019-02-11T15:21:42.480Z,8.55
2019-02-11T15:24:23.421Z,15.13
2019-02-11T15:27:04.530Z,8.15
2019-02-11T15:29:45.748Z,16.45
2019-02-11T15:32:26.587Z,17.87
2019-02-11T15:35:07.079Z,27.40
2019-02-11T15:37:48.095Z,11.00
2019-02-11T15:40:29.174Z,15.65
2019-02-11T15:43:09.940Z,14.78
2019-02-11T15:45:50.703Z,16.20
2019-02-11T15:48:31.799Z,13.65
2019-02-11T15:51:12.476Z,14.60
2019-02-11T15:53:53.355Z,12.68
2019-02-11T15:56:34.015Z,14.58
2019-02-11T15:59:15.040Z,12.20
2019-02-11T16:01:55.778Z,16.23
2019-02-11T16:04:36.544Z,10.32
2019-02-11T16:07:17.167Z,26.60
2019-02-11T16:09:58.086Z,7.72
2019-02-11T16:12:38.856Z,11.40
2019-02-11T16:15:19.576Z,15.75
2019-02-11T16:18:00.264Z,19.02
2019-02-11T16:20:39.070Z,21.07
2019-02-11T16:23:27.001Z,14.38
2019-02-11T16:26:14.899Z,10.85
2019-02-11T16:29:03.024Z,2.65
2019-02-11T16:34:44.811Z,11.53
2019-02-11T16:37:32.735Z,19.17
2019-02-11T16:40:41.373Z,8.28
2019-02-11T16:43:29.299Z,11.00
2019-02-11T16:46:17.199Z,6.55
2019-02-11T16:49:05.123Z,7.28
2019-02-11T16:51:53.023Z,10.10
2019-02-11T16:54:40.947Z,10.85
2019-02-11T16:57:28.879Z,4.42
2019-02-11T17:00:36.103Z,8.08
2019-02-11T17:03:24.028Z,5.58
2019-02-11T17:06:11.929Z,16.27
2019-02-11T17:08:59.858Z,14.07
2019-02-11T17:11:47.759Z,10.10
2019-02-11T17:14:35.695Z,10.00
2019-02-11T17:17:23.610Z,10.65
2019-02-11T17:20:32.239Z,4.35
2019-02-11T17:23:20.183Z,13.00
2019-02-11T17:26:08.088Z,17.23
2019-02-11T17:28:56.012Z,16.57
2019-02-11T17:31:36.331Z,15.08
2019-02-11T17:34:17.118Z,18.70
2019-02-11T17:36:57.543Z,31.77
2019-02-11T17:39:38.464Z,25.32
2019-02-11T17:42:19.030Z,29.18
2019-02-11T17:44:59.784Z,18.73
2019-02-11T17:47:40.263Z,29.95
2019-02-11T17:50:21.055Z,10.88
2019-02-11T17:53:01.826Z,17.65
2019-02-11T17:55:42.467Z,11.00
2019-02-11T17:58:23.316Z,13.32
2019-02-11T18:04:00.412Z,12.70
2019-02-11T18:06:48.344Z,9.05
2019-02-11T18:09:36.316Z,7.03
2019-02-11T18:12:24.214Z,8.28
2019-02-11T18:18:07.185Z,6.22
2019-02-11T18:20:55.088Z,14.90
2019-02-11T18:23:43.013Z,18.73
2019-02-11T18:26:30.915Z,10.80
2019-02-11T18:29:18.844Z,11.05
2019-02-11T18:32:06.744Z,10.53
2019-02-11T18:34:54.676Z,11.03
2019-02-11T18:37:42.570Z,13.00
2019-02-11T18:40:30.495Z,24.57
2019-02-11T18:43:18.436Z,15.60
2019-02-11T18:46:06.341Z,16.07
2019-02-11T18:48:54.375Z,20.45
2019-02-11T18:51:42.259Z,13.70
2019-02-11T18:54:30.188Z,14.05
2019-02-11T18:57:18.095Z,24.15
2019-02-11T19:00:26.743Z,14.03
2019-02-11T19:03:14.668Z,17.57
2019-02-11T19:06:02.576Z,20.15
2019-02-11T19:08:50.503Z,28.77
2019-02-11T19:11:38.412Z,16.30
2019-02-11T19:14:26.335Z,14.43
2019-02-11T19:17:14.247Z,21.00
2019-02-11T19:20:02.171Z,21.20
2019-02-11T19:22:50.075Z,12.47
2019-02-11T19:25:38.047Z,14.15
2019-02-11T19:28:25.976Z,19.67
2019-02-11T19:31:06.864Z,20.75
2019-02-11T19:33:47.893Z,13.68
2019-02-11T19:36:28.660Z,13.58
2019-02-11T19:39:09.859Z,22.17
2019-02-11T19:41:50.892Z,15.63
2019-02-11T19:44:31.672Z,17.98
2019-02-11T19:47:12.597Z,22.45
2019-02-11T19:49:53.320Z,17.17
2019-02-11T19:52:34.579Z,21.45
2019-02-11T19:55:15.403Z,27.35
2019-02-11T19:57:56.153Z,16.20
2019-02-11T20:00:36.952Z,18.27
2019-02-11T20:03:17.588Z,17.57
2019-02-11T20:05:58.799Z,17.50
2019-02-11T20:08:39.860Z,21.57
2019-02-11T20:11:20.208Z,13.00
2019-02-11T20:14:01.296Z,14.80
2019-02-11T20:16:41.720Z,19.20
2019-02-11T20:19:22.662Z,27.80
2019-02-11T20:22:03.904Z,26.70
2019-02-11T20:24:44.743Z,25.25
2019-02-11T20:27:26.004Z,32.48
2019-02-11T20:30:06.999Z,23.18
2019-02-11T20:32:47.694Z,20.77
2019-02-11T20:35:28.594Z,27.25
2019-02-11T20:38:09.360Z,22.02
2019-02-11T20:40:50.476Z,20.32
2019-02-11T20:43:31.212Z,24.60
2019-02-11T20:46:12.012Z,16.42
2019-02-11T20:48:53.192Z,29.90
2019-02-11T20:51:34.296Z,12.07
2019-02-11T20:54:15.230Z,12.58
2019-02-11T20:56:56.471Z,15.95
2019-02-11T20:59:37.636Z,21.15
2019-02-11T21:02:18.423Z,15.30
2019-02-11T21:04:59.365Z,19.80
2019-02-11T21:07:40.620Z,20.27
2019-02-11T21:10:21.615Z,22.77
2019-02-11T21:13:02.403Z,15.03
2019-02-11T21:15:43.141Z,23.55
2019-02-11T21:18:23.695Z,30.43
2019-02-11T21:21:04.608Z,25.82
2019-02-11T21:23:45.260Z,28.55
2019-02-11T21:26:26.268Z,26.93
2019-02-11T21:29:06.640Z,22.80
2019-02-11T21:31:47.661Z,21.40
2019-02-11T21:34:28.264Z,22.98
2019-02-11T21:37:09.648Z,25.68
2019-02-11T21:39:50.649Z,23.20
2019-02-11T21:42:31.396Z,11.63
2019-02-11T21:45:12.317Z,27.50
2019-02-11T21:50:37.187Z,22.37
2019-02-11T21:53:17.631Z,26.65
2019-02-11T21:55:58.235Z,26.23
2019-02-11T21:58:39.223Z,20.37
2019-02-11T22:01:19.864Z,22.77
2019-02-11T22:04:00.539Z,26.05
2019-02-11T22:06:41.071Z,26.33
2019-02-11T22:09:21.880Z,24.63
2019-02-11T22:12:02.761Z,18.17
2019-02-11T22:14:43.697Z,21.17
2019-02-11T22:17:24.512Z,21.15
2019-02-11T22:20:05.472Z,20.43
2019-02-11T22:22:46.273Z,19.57
2019-02-11T22:25:26.892Z,27.95
2019-02-11T22:28:07.415Z,19.70
2019-02-11T22:30:48.559Z,21.45
2019-02-11T22:33:29.140Z,8.73
2019-02-11T22:36:10.068Z,28.55
2019-02-11T22:38:50.936Z,22.17
2019-02-11T22:41:31.761Z,16.80
2019-02-11T22:44:12.447Z,26.15
2019-02-11T22:46:53.313Z,14.93
2019-02-11T22:49:34.069Z,21.57
2019-02-11T22:52:14.695Z,8.35
2019-02-11T22:54:55.103Z,16.25
2019-02-11T22:57:35.707Z,18.75
2019-02-11T23:00:16.731Z,16.65
2019-02-11T23:02:57.769Z,12.33
2019-02-11T23:05:38.178Z,18.17
2019-02-11T23:08:18.983Z,20.05
2019-02-11T23:10:59.615Z,34.65
2019-02-11T23:13:40.445Z,14.90
2019-02-11T23:16:21.337Z,25.25
2019-02-11T23:19:02.391Z,23.95
2019-02-11T23:21:43.400Z,24.43
2019-02-11T23:24:23.767Z,21.82
2019-02-11T23:27:04.327Z,16.65
2019-02-11T23:29:44.963Z,25.72
2019-02-11T23:32:25.952Z,23.65
2019-02-11T23:35:06.660Z,30.45
2019-02-11T23:37:47.755Z,19.23
2019-02-11T23:40:28.704Z,18.52
2019-02-11T23:43:09.527Z,17.92
2019-02-11T23:45:50.400Z,18.12
2019-02-11T23:48:31.449Z,17.05
2019-02-11T23:51:12.426Z,14.23
2019-02-11T23:53:53.264Z,22.90
2019-02-11T23:56:34.304Z,17.27
2019-02-11T23:59:15.120Z,18.90
